Time;durP1;ratioP1;P1;durP2;ratioP2;P2;SDS_P1;SDS_P2;PMS_P1;PMS_P2;Temp;Humidity;BMP_temperature;BMP_pressure;BME280_temperature;BME280_humidity;BME280_pressure;Samples;Min_cycle;Max_cycle;Signal;HPM_P1;HPM_P2
2023/06/04 00:01:32;;;;;;;8.20;6.30;;;;;;;;;;4993055;28;20037;-73
2023/06/04 00:03:58;;;;;;;11.82;6.53;;;;;;;;;;4992919;28;20034;-73
2023/06/04 00:06:23;;;;;;;8.23;6.50;;;;;;;;;;4992848;28;20026;-73
2023/06/04 00:08:48;;;;;;;9.32;6.38;;;;;;;;;;4993241;28;20026;-73
2023/06/04 00:11:13;;;;;;;13.45;6.38;;;;;;;;;;4992866;28;20096;-73
2023/06/04 00:13:39;;;;;;;9.10;6.43;;;;;;;;;;4992769;28;20400;-74
2023/06/04 00:16:04;;;;;;;8.80;5.88;;;;;;;;;;4992773;28;20046;-73
2023/06/04 00:18:30;;;;;;;16.95;6.80;;;;;;;;;;4992211;28;20041;-73
2023/06/04 00:20:55;;;;;;;14.88;6.60;;;;;;;;;;4991683;28;20064;-73
2023/06/04 00:23:20;;;;;;;12.05;6.57;;;;;;;;;;4992408;28;20034;-73
2023/06/04 00:25:45;;;;;;;11.25;7.13;;;;;;;;;;4992530;28;20030;-73
2023/06/04 00:28:11;;;;;;;12.43;8.02;;;;;;;;;;4991983;28;20045;-74
2023/06/04 00:30:36;;;;;;;11.50;6.90;;;;;;;;;;4992773;28;20035;-74
2023/06/04 00:33:01;;;;;;;12.27;7.25;;;;;;;;;;4992862;28;20038;-74
2023/06/04 00:35:26;;;;;;;14.32;7.22;;;;;;;;;;4992571;28;20050;-74
2023/06/04 00:37:52;;;;;;;10.57;7.25;;;;;;;;;;4992260;28;20099;-74
2023/06/04 00:40:17;;;;;;;16.60;7.53;;;;;;;;;;4992328;28;20026;-74
2023/06/04 00:42:44;;;;;;;15.07;8.63;;;;;;;;;;4992192;28;20041;-74
2023/06/04 00:45:10;;;;;;;21.58;8.90;;;;;;;;;;4992422;28;20104;-74
2023/06/04 00:47:35;;;;;;;13.25;8.10;;;;;;;;;;4992925;28;20077;-74
2023/06/04 00:50:01;;;;;;;13.88;7.78;;;;;;;;;;5004155;28;20035;-74
2023/06/04 00:52:27;;;;;;;14.02;8.05;;;;;;;;;;4991552;28;20066;-73
2023/06/04 00:54:54;;;;;;;12.23;8.05;;;;;;;;;;4992080;28;20038;-75
2023/06/04 00:57:21;;;;;;;13.48;8.07;;;;;;;;;;4992229;28;20022;-75
2023/06/04 00:59:46;;;;;;;12.02;7.85;;;;;;;;;;4992408;28;20106;-73
2023/06/04 01:02:15;;;;;;;12.80;7.75;;;;;;;;;;4992117;28;20463;-73
2023/06/04 01:04:53;;;;;;;13.70;7.53;;;;;;;;;;4991839;28;20117;-75
2023/06/04 01:07:19;;;;;;;13.82;8.65;;;;;;;;;;4991819;28;20058;-73
2023/06/04 01:09:45;;;;;;;17.40;9.02;;;;;;;;;;4992028;28;20386;-73
2023/06/04 01:12:11;;;;;;;11.85;7.75;;;;;;;;;;4991949;28;20030;-75
2023/06/04 01:14:37;;;;;;;12.35;8.52;;;;;;;;;;4992276;28;20484;-73
2023/06/04 01:17:29;;;;;;;19.25;8.65;;;;;;;;;;4991751;28;20045;-73
2023/06/04 01:20:08;;;;;;;12.85;8.30;;;;;;;;;;4991463;28;20193;-75
2023/06/04 01:22:51;;;;;;;16.17;8.52;;;;;;;;;;4991965;28;20045;-73
2023/06/04 01:25:25;;;;;;;10.68;7.68;;;;;;;;;;4991874;28;20030;-73
2023/06/04 01:27:55;;;;;;;15.98;7.47;;;;;;;;;;4991678;28;20034;-73
2023/06/04 01:30:24;;;;;;;14.25;7.72;;;;;;;;;;4991657;28;20041;-73
2023/06/04 01:32:49;;;;;;;13.48;7.68;;;;;;;;;;4991904;28;20164;-74
2023/06/04 01:35:14;;;;;;;15.90;9.13;;;;;;;;;;4991870;28;20042;-73
2023/06/04 01:37:40;;;;;;;17.23;9.38;;;;;;;;;;4991723;28;20031;-74
2023/06/04 01:40:08;;;;;;;15.60;8.80;;;;;;;;;;4991506;28;20034;-74
2023/06/04 01:42:34;;;;;;;19.48;9.07;;;;;;;;;;4995608;28;20042;-73
2023/06/04 01:44:59;;;;;;;18.13;10.35;;;;;;;;;;4995943;28;20045;-74
2023/06/04 01:47:24;;;;;;;24.17;10.98;;;;;;;;;;4995392;28;20530;-74
2023/06/04 01:49:50;;;;;;;23.42;11.02;;;;;;;;;;4994015;28;20093;-75
2023/06/04 01:52:16;;;;;;;17.52;9.65;;;;;;;;;;4995242;28;20061;-73
2023/06/04 01:54:42;;;;;;;21.92;9.68;;;;;;;;;;4995534;28;20065;-73
2023/06/04 01:57:09;;;;;;;15.60;8.63;;;;;;;;;;4995470;28;20030;-73
2023/06/04 01:59:36;;;;;;;15.73;9.48;;;;;;;;;;4995628;28;20033;-74
2023/06/04 02:02:02;;;;;;;19.73;9.50;;;;;;;;;;4995220;28;20057;-74
2023/06/04 02:04:27;;;;;;;15.95;9.13;;;;;;;;;;4994944;28;20121;-74
2023/06/04 02:06:53;;;;;;;15.30;8.80;;;;;;;;;;4994903;28;20030;-74
2023/06/04 02:09:18;;;;;;;13.10;7.60;;;;;;;;;;4995031;28;20034;-74
2023/06/04 02:11:43;;;;;;;13.27;8.30;;;;;;;;;;4995391;28;20027;-74
2023/06/04 02:14:09;;;;;;;14.60;7.75;;;;;;;;;;4994911;28;20050;-74
2023/06/04 02:16:35;;;;;;;13.60;8.10;;;;;;;;;;4994946;28;20121;-74
2023/06/04 02:19:00;;;;;;;16.50;8.60;;;;;;;;;;4994748;28;20042;-73
2023/06/04 02:21:26;;;;;;;11.77;7.78;;;;;;;;;;4995007;28;20449;-74
2023/06/04 02:23:51;;;;;;;9.05;7.13;;;;;;;;;;4995272;28;20102;-74
2023/06/04 02:26:17;;;;;;;14.07;7.95;;;;;;;;;;4994687;28;20134;-74
2023/06/04 02:28:42;;;;;;;18.00;9.60;;;;;;;;;;4993264;28;20037;-74
2023/06/04 02:31:07;;;;;;;15.98;9.68;;;;;;;;;;4994486;28;20496;-74
2023/06/04 02:33:33;;;;;;;15.52;10.23;;;;;;;;;;4994643;28;20037;-74
2023/06/04 02:35:58;;;;;;;21.33;10.13;;;;;;;;;;4994960;28;20045;-74
2023/06/04 02:38:23;;;;;;;19.80;10.40;;;;;;;;;;5005512;28;20081;-72
2023/06/04 02:40:49;;;;;;;17.20;9.63;;;;;;;;;;4994359;28;20035;-73
2023/06/04 02:43:15;;;;;;;15.38;10.02;;;;;;;;;;4994337;28;20046;-73
2023/06/04 02:45:40;;;;;;;21.45;9.70;;;;;;;;;;4994286;28;20045;-72
2023/06/04 02:48:05;;;;;;;19.70;10.40;;;;;;;;;;4994219;28;20026;-73
2023/06/04 02:50:31;;;;;;;17.92;10.25;;;;;;;;;;4994581;28;20026;-73
2023/06/04 02:52:56;;;;;;;14.90;9.52;;;;;;;;;;4994016;28;20061;-73
2023/06/04 02:55:21;;;;;;;12.27;8.70;;;;;;;;;;4994311;28;20035;-73
2023/06/04 02:57:47;;;;;;;20.35;8.10;;;;;;;;;;4994135;28;20035;-75
2023/06/04 03:00:14;;;;;;;13.73;8.07;;;;;;;;;;5009485;28;20018;-75
2023/06/04 03:02:44;;;;;;;21.23;9.18;;;;;;;;;;4994172;28;20030;-72
2023/06/04 03:05:12;;;;;;;12.70;8.32;;;;;;;;;;4986780;28;20038;-73
2023/06/04 03:07:38;;;;;;;18.73;8.82;;;;;;;;;;4973297;28;20038;-73
2023/06/04 03:10:04;;;;;;;14.32;8.25;;;;;;;;;;4974555;28;20086;-74
2023/06/04 03:12:30;;;;;;;12.80;8.55;;;;;;;;;;4974773;28;20039;-74
2023/06/04 03:14:55;;;;;;;18.00;9.68;;;;;;;;;;4993386;28;20026;-74
2023/06/04 03:17:21;;;;;;;14.40;9.23;;;;;;;;;;4992579;28;20037;-73
2023/06/04 03:19:47;;;;;;;16.77;10.18;;;;;;;;;;4993504;28;20041;-73
2023/06/04 03:22:13;;;;;;;14.07;9.15;;;;;;;;;;4993885;28;20042;-74
2023/06/04 03:24:40;;;;;;;17.13;9.80;;;;;;;;;;4994035;28;20477;-74
2023/06/04 03:27:07;;;;;;;17.30;10.02;;;;;;;;;;4993878;28;20114;-73
2023/06/04 03:29:33;;;;;;;16.15;9.65;;;;;;;;;;4994693;28;20026;-74
2023/06/04 03:31:59;;;;;;;15.32;8.70;;;;;;;;;;4993662;28;20042;-73
2023/06/04 03:34:27;;;;;;;15.40;8.48;;;;;;;;;;4993541;28;20093;-73
2023/06/04 03:36:55;;;;;;;14.95;8.50;;;;;;;;;;4993434;28;20477;-73
2023/06/04 03:39:21;;;;;;;18.50;9.63;;;;;;;;;;4993352;28;20054;-73
2023/06/04 03:41:46;;;;;;;18.98;10.05;;;;;;;;;;4993921;28;20453;-73
2023/06/04 03:44:16;;;;;;;18.88;9.60;;;;;;;;;;4993354;28;20043;-73
2023/06/04 03:46:43;;;;;;;15.60;8.80;;;;;;;;;;4993594;28;20039;-73
2023/06/04 03:49:12;;;;;;;17.55;10.48;;;;;;;;;;4993654;28;20035;-73
2023/06/04 03:51:38;;;;;;;17.80;9.90;;;;;;;;;;4993605;28;20434;-73
2023/06/04 03:54:04;;;;;;;17.75;10.07;;;;;;;;;;4993485;28;20105;-73
2023/06/04 03:56:29;;;;;;;19.95;11.18;;;;;;;;;;4993738;28;20043;-73
2023/06/04 03:58:55;;;;;;;16.40;9.93;;;;;;;;;;4993176;28;20412;-73
2023/06/04 04:01:20;;;;;;;17.48;10.15;;;;;;;;;;4993449;28;20592;-73
2023/06/04 04:03:49;;;;;;;14.88;8.98;;;;;;;;;;4992457;28;20085;-73
2023/06/04 04:06:14;;;;;;;12.57;8.68;;;;;;;;;;4993530;28;20022;-73
2023/06/04 04:08:42;;;;;;;12.65;8.27;;;;;;;;;;4993451;28;20161;-73
2023/06/04 04:11:11;;;;;;;9.70;7.70;;;;;;;;;;4992960;28;20045;-73
2023/06/04 04:13:37;;;;;;;14.18;8.52;;;;;;;;;;4993209;28;20125;-75
2023/06/04 04:16:02;;;;;;;15.77;8.13;;;;;;;;;;4992926;28;20162;-73
2023/06/04 04:18:27;;;;;;;13.27;8.25;;;;;;;;;;5007677;28;20046;-74
2023/06/04 04:20:53;;;;;;;10.75;7.35;;;;;;;;;;4993414;28;20389;-74
2023/06/04 04:23:18;;;;;;;14.68;7.55;;;;;;;;;;4992897;28;20483;-74
2023/06/04 04:25:48;;;;;;;8.95;6.53;;;;;;;;;;4990479;28;20041;-74
2023/06/04 04:28:14;;;;;;;9.50;6.40;;;;;;;;;;4973463;28;20099;-74
2023/06/04 04:30:40;;;;;;;11.68;6.57;;;;;;;;;;4973303;28;20486;-74
2023/06/04 04:33:06;;;;;;;12.35;6.60;;;;;;;;;;4987614;28;20092;-73
2023/06/04 04:35:32;;;;;;;9.63;6.75;;;;;;;;;;4993127;28;20388;-73
2023/06/04 04:38:03;;;;;;;9.27;6.65;;;;;;;;;;4991393;28;20038;-73
2023/06/04 04:40:29;;;;;;;6.70;5.85;;;;;;;;;;4992708;28;20034;-73
2023/06/04 04:42:55;;;;;;;12.02;6.20;;;;;;;;;;4992594;28;20046;-74
2023/06/04 04:45:20;;;;;;;9.95;6.38;;;;;;;;;;4992497;28;20022;-73
2023/06/04 04:47:46;;;;;;;9.95;5.97;;;;;;;;;;5007892;28;20061;-73
2023/06/04 04:50:12;;;;;;;12.40;6.20;;;;;;;;;;4992392;28;20027;-74
2023/06/04 04:52:38;;;;;;;7.50;5.88;;;;;;;;;;4992552;28;20487;-74
2023/06/04 04:55:03;;;;;;;8.07;5.97;;;;;;;;;;4992276;28;20451;-74
2023/06/04 04:57:29;;;;;;;11.68;6.00;;;;;;;;;;4992300;28;20042;-74
2023/06/04 04:59:54;;;;;;;9.73;6.10;;;;;;;;;;4992720;28;20038;-74
2023/06/04 05:02:20;;;;;;;8.98;6.10;;;;;;;;;;4992027;28;20040;-74
2023/06/04 05:04:45;;;;;;;10.10;6.32;;;;;;;;;;4992344;28;20030;-74
2023/06/04 05:07:11;;;;;;;10.57;7.47;;;;;;;;;;4992201;28;20121;-74
2023/06/04 05:09:36;;;;;;;15.90;8.68;;;;;;;;;;4992250;28;20096;-74
2023/06/04 05:12:01;;;;;;;14.43;8.48;;;;;;;;;;4992165;28;20097;-74
2023/06/04 05:14:28;;;;;;;17.73;8.68;;;;;;;;;;4991682;28;20039;-74
2023/06/04 05:16:56;;;;;;;11.75;7.93;;;;;;;;;;4991897;28;20041;-74
2023/06/04 05:19:22;;;;;;;12.25;7.50;;;;;;;;;;4991662;28;20030;-74
2023/06/04 05:21:48;;;;;;;12.93;7.88;;;;;;;;;;4991747;28;20428;-74
2023/06/04 05:24:14;;;;;;;17.80;7.50;;;;;;;;;;4991972;28;20026;-74
2023/06/04 05:26:39;;;;;;;7.40;5.97;;;;;;;;;;4992391;28;20420;-74
2023/06/04 05:29:05;;;;;;;9.32;6.07;;;;;;;;;;4991610;28;20042;-75
2023/06/04 05:31:33;;;;;;;14.85;6.15;;;;;;;;;;4991728;28;20034;-75
2023/06/04 05:34:04;;;;;;;7.95;5.97;;;;;;;;;;4992051;28;20039;-75
2023/06/04 05:36:30;;;;;;;9.15;5.85;;;;;;;;;;4990515;28;20034;-73
2023/06/04 05:38:57;;;;;;;9.57;5.93;;;;;;;;;;4991885;28;20535;-74
2023/06/04 05:41:27;;;;;;;10.85;5.55;;;;;;;;;;4991839;28;20035;-74
2023/06/04 05:43:53;;;;;;;10.30;5.90;;;;;;;;;;4991817;28;20513;-75
2023/06/04 05:46:18;;;;;;;7.10;5.05;;;;;;;;;;4991576;28;20066;-73
2023/06/04 05:48:43;;;;;;;9.07;5.95;;;;;;;;;;4991682;28;20035;-74
2023/06/04 05:51:09;;;;;;;11.70;5.78;;;;;;;;;;4991439;28;20022;-74
2023/06/04 05:53:34;;;;;;;7.95;5.50;;;;;;;;;;5007182;28;20539;-75
2023/06/04 05:55:59;;;;;;;9.80;6.40;;;;;;;;;;4991635;28;20406;-74
2023/06/04 05:58:25;;;;;;;9.68;6.78;;;;;;;;;;4991375;28;20035;-74
2023/06/04 06:00:50;;;;;;;10.20;6.13;;;;;;;;;;4991334;28;20031;-73
2023/06/04 06:03:16;;;;;;;7.50;6.20;;;;;;;;;;4991238;28;20473;-73
2023/06/04 06:05:42;;;;;;;11.88;6.38;;;;;;;;;;4991895;28;20037;-74
2023/06/04 06:08:07;;;;;;;8.27;5.88;;;;;;;;;;4991283;28;20084;-74
2023/06/04 06:10:33;;;;;;;10.43;6.25;;;;;;;;;;4991429;28;20038;-74
2023/06/04 06:13:00;;;;;;;14.30;6.00;;;;;;;;;;4991208;28;20038;-76
2023/06/04 06:15:25;;;;;;;11.88;5.78;;;;;;;;;;4991378;28;20035;-73
2023/06/04 06:17:51;;;;;;;7.70;4.80;;;;;;;;;;4991647;28;20030;-73
2023/06/04 06:20:17;;;;;;;5.55;4.95;;;;;;;;;;4990097;28;20034;-73
2023/06/04 06:22:43;;;;;;;12.80;5.32;;;;;;;;;;4991066;28;20038;-74
2023/06/04 06:25:08;;;;;;;9.50;5.38;;;;;;;;;;4991214;28;20060;-74
2023/06/04 06:27:34;;;;;;;5.30;4.70;;;;;;;;;;4993268;28;20054;-73
2023/06/04 06:30:00;;;;;;;9.70;5.43;;;;;;;;;;4995189;28;20022;-74
2023/06/04 06:32:27;;;;;;;7.90;5.00;;;;;;;;;;5009632;28;20496;-74
2023/06/04 06:34:52;;;;;;;5.70;5.10;;;;;;;;;;4994641;28;20046;-75
2023/06/04 06:37:17;;;;;;;9.70;5.57;;;;;;;;;;4994561;28;20038;-75
2023/06/04 06:39:43;;;;;;;8.27;5.25;;;;;;;;;;4994773;28;20069;-75
2023/06/04 06:42:08;;;;;;;8.00;5.13;;;;;;;;;;4994524;28;20408;-75
2023/06/04 06:44:33;;;;;;;8.30;5.45;;;;;;;;;;4995032;28;20034;-75
2023/06/04 06:46:59;;;;;;;8.38;5.53;;;;;;;;;;5009435;28;20403;-75
2023/06/04 06:49:24;;;;;;;6.68;5.50;;;;;;;;;;4994306;28;20034;-75
2023/06/04 06:51:49;;;;;;;6.75;4.82;;;;;;;;;;4994463;28;20132;-74
2023/06/04 06:54:21;;;;;;;6.97;5.45;;;;;;;;;;4994222;28;20034;-75
2023/06/04 06:56:48;;;;;;;8.32;5.72;;;;;;;;;;4994693;28;20030;-75
2023/06/04 06:59:13;;;;;;;6.68;5.40;;;;;;;;;;4994068;28;20496;-74
2023/06/04 07:01:38;;;;;;;7.35;5.15;;;;;;;;;;4994202;28;20034;-74
2023/06/04 07:04:03;;;;;;;7.85;5.20;;;;;;;;;;4994152;28;20026;-74
2023/06/04 07:06:29;;;;;;;10.07;5.25;;;;;;;;;;4993902;28;20042;-74
2023/06/04 07:08:55;;;;;;;7.15;4.95;;;;;;;;;;4994627;28;20038;-74
2023/06/04 07:11:21;;;;;;;7.18;5.30;;;;;;;;;;4994006;28;20035;-75
2023/06/04 07:13:47;;;;;;;6.70;4.50;;;;;;;;;;4993816;28;20459;-75
2023/06/04 07:16:12;;;;;;;7.32;4.28;;;;;;;;;;4993660;28;20113;-75
2023/06/04 07:18:37;;;;;;;6.57;4.18;;;;;;;;;;4993421;28;20038;-74
2023/06/04 07:21:03;;;;;;;7.47;4.20;;;;;;;;;;4993636;28;20015;-74
2023/06/04 07:23:28;;;;;;;6.10;4.05;;;;;;;;;;4993995;28;20035;-73
2023/06/04 07:25:53;;;;;;;5.05;3.72;;;;;;;;;;4993573;28;20030;-74
2023/06/04 07:28:19;;;;;;;6.80;3.53;;;;;;;;;;4993698;28;20045;-74
2023/06/04 07:30:47;;;;;;;4.43;3.20;;;;;;;;;;4993655;28;20452;-74
2023/06/04 07:33:12;;;;;;;10.02;3.38;;;;;;;;;;4993689;28;20049;-74
2023/06/04 07:35:38;;;;;;;5.85;3.47;;;;;;;;;;4994088;28;20061;-74
2023/06/04 07:38:03;;;;;;;6.13;3.42;;;;;;;;;;4992351;28;20504;-73
2023/06/04 07:40:28;;;;;;;7.78;3.47;;;;;;;;;;4993369;28;20049;-74
2023/06/04 07:42:54;;;;;;;6.65;3.53;;;;;;;;;;4993530;28;20041;-74
2023/06/04 07:45:19;;;;;;;4.82;3.45;;;;;;;;;;4993375;28;20117;-74
2023/06/04 07:47:45;;;;;;;4.80;3.20;;;;;;;;;;4993754;28;20030;-74
2023/06/04 07:50:10;;;;;;;4.70;2.88;;;;;;;;;;4993284;28;20092;-74
2023/06/04 07:52:36;;;;;;;4.80;2.97;;;;;;;;;;4993180;28;20093;-74
2023/06/04 07:55:02;;;;;;;12.63;4.25;;;;;;;;;;4993168;28;20053;-74
2023/06/04 07:57:28;;;;;;;4.60;3.67;;;;;;;;;;4993305;28;20088;-74
2023/06/04 07:59:54;;;;;;;4.00;3.38;;;;;;;;;;4993394;28;20034;-75
2023/06/04 08:02:19;;;;;;;3.97;3.22;;;;;;;;;;4993056;28;20187;-75
2023/06/04 08:04:46;;;;;;;6.07;2.97;;;;;;;;;;4993054;28;20038;-75
2023/06/04 08:07:11;;;;;;;6.22;3.55;;;;;;;;;;4992992;28;20037;-75
2023/06/04 08:09:37;;;;;;;6.45;3.30;;;;;;;;;;4992631;28;20485;-75
2023/06/04 08:12:02;;;;;;;7.72;3.17;;;;;;;;;;4993155;28;20033;-72
2023/06/04 08:14:27;;;;;;;3.85;3.17;;;;;;;;;;4992994;28;20042;-73
2023/06/04 08:16:53;;;;;;;5.38;3.45;;;;;;;;;;4992792;28;20034;-71
2023/06/04 08:19:19;;;;;;;4.95;3.85;;;;;;;;;;4992439;28;20042;-76
2023/06/04 08:21:45;;;;;;;12.00;3.70;;;;;;;;;;4992611;28;20513;-72
2023/06/04 08:24:11;;;;;;;4.40;3.30;;;;;;;;;;4992746;28;20054;-73
2023/06/04 08:26:36;;;;;;;4.10;3.35;;;;;;;;;;4992782;28;20101;-72
2023/06/04 08:29:05;;;;;;;4.97;3.45;;;;;;;;;;4992491;28;20034;-72
2023/06/04 08:31:31;;;;;;;7.30;3.50;;;;;;;;;;4992465;28;20448;-73
2023/06/04 08:33:56;;;;;;;9.18;3.53;;;;;;;;;;4990948;28;20078;-74
2023/06/04 08:36:21;;;;;;;5.45;3.70;;;;;;;;;;4992485;28;20112;-73
2023/06/04 08:38:50;;;;;;;10.32;3.17;;;;;;;;;;4992783;28;20544;-73
2023/06/04 08:41:28;;;;;;;7.90;3.78;;;;;;;;;;4992500;28;20117;-74
2023/06/04 08:43:57;;;;;;;5.22;3.85;;;;;;;;;;5007615;28;20061;-74
2023/06/04 08:46:23;;;;;;;6.03;3.63;;;;;;;;;;4992413;28;20031;-74
2023/06/04 08:48:50;;;;;;;13.05;3.50;;;;;;;;;;4992237;28;20030;-73
2023/06/04 08:51:15;;;;;;;6.32;3.70;;;;;;;;;;4991915;28;20033;-74
2023/06/04 08:53:42;;;;;;;5.65;3.72;;;;;;;;;;4992755;28;20026;-74
2023/06/04 08:56:07;;;;;;;8.70;3.55;;;;;;;;;;4992415;28;20038;-73
2023/06/04 08:58:35;;;;;;;5.65;3.80;;;;;;;;;;4992345;28;20042;-74
2023/06/04 09:01:01;;;;;;;8.13;3.47;;;;;;;;;;5007122;28;20102;-74
2023/06/04 09:03:29;;;;;;;9.55;3.92;;;;;;;;;;5007057;28;20039;-73
2023/06/04 09:05:56;;;;;;;4.20;3.40;;;;;;;;;;4993015;28;20500;-74
2023/06/04 09:08:24;;;;;;;14.68;4.25;;;;;;;;;;4991981;28;20030;-74
2023/06/04 09:10:51;;;;;;;5.45;3.97;;;;;;;;;;4992177;28;20030;-73
2023/06/04 09:13:18;;;;;;;4.60;3.83;;;;;;;;;;4991895;28;20160;-74
2023/06/04 09:15:43;;;;;;;8.60;3.67;;;;;;;;;;5006887;28;20353;-74
2023/06/04 09:18:09;;;;;;;6.18;4.13;;;;;;;;;;4991715;28;20030;-73
2023/06/04 09:20:34;;;;;;;6.38;3.90;;;;;;;;;;4992600;28;20072;-73
2023/06/04 09:22:59;;;;;;;6.25;3.80;;;;;;;;;;4991962;28;20081;-74
2023/06/04 09:25:26;;;;;;;7.95;3.63;;;;;;;;;;4991957;28;20038;-74
2023/06/04 09:28:05;;;;;;;5.90;3.75;;;;;;;;;;4992040;28;20069;-74
2023/06/04 09:30:31;;;;;;;5.13;3.65;;;;;;;;;;4991978;28;20516;-74
2023/06/04 09:33:06;;;;;;;4.43;3.50;;;;;;;;;;4992257;28;20030;-74
2023/06/04 09:35:31;;;;;;;6.55;3.45;;;;;;;;;;4991989;28;20042;-73
2023/06/04 09:37:57;;;;;;;7.63;3.70;;;;;;;;;;4991737;28;20113;-74
2023/06/04 09:40:23;;;;;;;6.07;3.58;;;;;;;;;;4991978;28;20041;-73
2023/06/04 09:42:56;;;;;;;7.20;3.78;;;;;;;;;;4991883;28;20034;-73
2023/06/04 09:45:32;;;;;;;10.23;3.88;;;;;;;;;;4991713;28;20261;-73
2023/06/04 09:47:58;;;;;;;6.32;3.85;;;;;;;;;;4992248;28;20037;-73
2023/06/04 09:50:30;;;;;;;5.00;3.65;;;;;;;;;;4991975;28;20041;-73
2023/06/04 09:52:56;;;;;;;8.00;4.18;;;;;;;;;;4991942;28;20517;-74
2023/06/04 09:55:22;;;;;;;6.22;4.20;;;;;;;;;;4992328;28;20034;-75
2023/06/04 09:57:51;;;;;;;6.20;3.90;;;;;;;;;;4992094;28;20045;-74
2023/06/04 10:00:18;;;;;;;5.47;3.50;;;;;;;;;;4991586;28;20027;-74
2023/06/04 10:02:45;;;;;;;4.15;3.63;;;;;;;;;;4995371;28;20105;-74
2023/06/04 10:05:14;;;;;;;5.53;3.42;;;;;;;;;;4994701;28;20121;-74
2023/06/04 10:07:40;;;;;;;8.10;4.20;;;;;;;;;;4996017;28;20049;-75
2023/06/04 10:10:07;;;;;;;5.90;3.70;;;;;;;;;;4995793;28;20038;-74
2023/06/04 10:12:37;;;;;;;6.32;3.80;;;;;;;;;;4995557;28;20053;-74
2023/06/04 10:15:07;;;;;;;5.43;4.13;;;;;;;;;;4995627;28;20033;-74
2023/06/04 10:17:33;;;;;;;6.03;3.45;;;;;;;;;;4994353;28;20451;-74
2023/06/04 10:20:01;;;;;;;5.78;3.70;;;;;;;;;;4995323;28;20104;-74
2023/06/04 10:22:28;;;;;;;7.05;3.35;;;;;;;;;;4995427;28;20057;-74
2023/06/04 10:24:54;;;;;;;5.53;3.72;;;;;;;;;;4995182;28;20031;-73
2023/06/04 10:27:20;;;;;;;8.05;3.72;;;;;;;;;;4995269;28;20037;-74
2023/06/04 10:29:46;;;;;;;5.00;3.70;;;;;;;;;;4995588;28;20424;-74
2023/06/04 10:32:11;;;;;;;5.40;3.35;;;;;;;;;;4995391;28;20035;-74
2023/06/04 10:34:37;;;;;;;4.72;3.83;;;;;;;;;;4995334;28;20567;-74
2023/06/04 10:37:02;;;;;;;4.97;3.65;;;;;;;;;;4995223;28;20122;-74
2023/06/04 10:39:29;;;;;;;7.30;3.75;;;;;;;;;;4994988;28;20070;-74
2023/06/04 10:42:02;;;;;;;10.45;3.88;;;;;;;;;;4994204;28;20069;-74
2023/06/04 10:44:29;;;;;;;3.90;3.50;;;;;;;;;;4993690;28;20038;-74
2023/06/04 10:46:54;;;;;;;5.38;3.70;;;;;;;;;;4995091;28;20121;-74
2023/06/04 10:49:31;;;;;;;6.32;4.00;;;;;;;;;;4995035;28;20121;-74
2023/06/04 10:51:57;;;;;;;6.95;4.15;;;;;;;;;;4994878;28;20046;-74
2023/06/04 10:54:25;;;;;;;3.85;3.25;;;;;;;;;;4994958;28;20026;-74
2023/06/04 10:56:50;;;;;;;7.15;4.15;;;;;;;;;;4995310;28;20026;-74
2023/06/04 10:59:17;;;;;;;9.23;3.45;;;;;;;;;;4994324;28;20057;-74
2023/06/04 11:01:43;;;;;;;6.20;3.78;;;;;;;;;;4994543;28;20037;-74
2023/06/04 11:04:22;;;;;;;6.20;3.58;;;;;;;;;;4994937;28;20034;-74
2023/06/04 11:07:00;;;;;;;11.18;3.83;;;;;;;;;;5009642;28;20062;-74
2023/06/04 11:09:26;;;;;;;6.65;3.65;;;;;;;;;;4994615;28;20245;-74
2023/06/04 11:12:01;;;;;;;7.95;3.78;;;;;;;;;;4995056;28;20658;-74
2023/06/04 11:14:26;;;;;;;4.45;3.50;;;;;;;;;;4994369;28;20126;-73
2023/06/04 11:16:51;;;;;;;3.90;3.28;;;;;;;;;;4994426;28;20113;-74
2023/06/04 11:19:17;;;;;;;14.93;3.38;;;;;;;;;;4993575;28;20068;-74
2023/06/04 11:21:43;;;;;;;7.57;3.50;;;;;;;;;;4993425;28;20057;-73
2023/06/04 11:24:08;;;;;;;3.95;3.20;;;;;;;;;;4993243;28;20034;-74
2023/06/04 11:26:35;;;;;;;8.80;3.50;;;;;;;;;;4993730;28;20050;-74
2023/06/04 11:29:01;;;;;;;8.80;3.38;;;;;;;;;;4993246;28;20054;-74
2023/06/04 11:31:27;;;;;;;6.00;3.25;;;;;;;;;;4993328;28;20043;-74
2023/06/04 11:33:53;;;;;;;6.80;3.17;;;;;;;;;;4993147;28;20027;-74
2023/06/04 11:36:28;;;;;;;4.20;3.17;;;;;;;;;;4993141;28;20116;-74
2023/06/04 11:39:02;;;;;;;7.00;3.50;;;;;;;;;;4993529;28;20026;-74
2023/06/04 11:41:33;;;;;;;5.65;3.53;;;;;;;;;;4993195;28;20493;-74
2023/06/04 11:44:04;;;;;;;7.40;3.90;;;;;;;;;;4993126;28;20058;-74
2023/06/04 11:46:30;;;;;;;8.10;3.47;;;;;;;;;;4993071;28;20050;-74
2023/06/04 11:48:56;;;;;;;4.65;3.40;;;;;;;;;;4992722;28;20069;-74
2023/06/04 11:51:21;;;;;;;4.38;3.42;;;;;;;;;;4992323;28;20474;-74
2023/06/04 11:53:47;;;;;;;5.72;3.55;;;;;;;;;;4993316;28;20030;-73
2023/06/04 11:56:12;;;;;;;4.05;3.50;;;;;;;;;;5007805;28;20058;-73
2023/06/04 11:58:40;;;;;;;6.88;3.70;;;;;;;;;;4993003;28;20035;-73
2023/06/04 12:01:06;;;;;;;6.25;3.50;;;;;;;;;;5007417;28;20042;-75
2023/06/04 12:03:38;;;;;;;4.78;3.40;;;;;;;;;;4992586;28;20035;-73
2023/06/04 12:06:11;;;;;;;4.47;3.67;;;;;;;;;;4992316;28;20061;-73
2023/06/04 12:08:53;;;;;;;5.37;3.80;;;;;;;;;;4993363;28;20018;-74
2023/06/04 12:11:32;;;;;;;6.15;3.53;;;;;;;;;;4992523;28;20037;-73
2023/06/04 12:14:15;;;;;;;5.53;3.90;;;;;;;;;;4992647;28;20034;-73
2023/06/04 12:16:40;;;;;;;6.38;3.92;;;;;;;;;;4992415;28;20130;-73
2023/06/04 12:19:10;;;;;;;4.10;3.30;;;;;;;;;;4957049;28;1041199;-73
2023/06/04 12:21:35;;;;;;;4.53;3.40;;;;;;;;;;4993544;28;20080;-73
2023/06/04 12:24:07;;;;;;;6.60;3.53;;;;;;;;;;4993244;28;20469;-73
2023/06/04 12:26:37;;;;;;;6.80;3.55;;;;;;;;;;4993528;28;20163;-73
2023/06/04 12:29:14;;;;;;;12.82;3.53;;;;;;;;;;4993215;28;20037;-73
2023/06/04 12:31:40;;;;;;;9.43;3.28;;;;;;;;;;4993126;28;20069;-73
2023/06/04 12:34:06;;;;;;;6.85;3.72;;;;;;;;;;5008200;28;20046;-73
2023/06/04 12:36:33;;;;;;;8.73;4.07;;;;;;;;;;4992963;28;20030;-73
2023/06/04 12:39:00;;;;;;;7.85;4.00;;;;;;;;;;4993292;28;20029;-73
2023/06/04 12:41:27;;;;;;;4.03;3.08;;;;;;;;;;5007947;28;20070;-73
2023/06/04 12:43:52;;;;;;;8.52;3.58;;;;;;;;;;4992741;28;20101;-73
2023/06/04 12:46:18;;;;;;;7.03;3.60;;;;;;;;;;4992902;28;20444;-73
2023/06/04 12:48:43;;;;;;;3.90;3.33;;;;;;;;;;4992099;28;20089;-73
2023/06/04 12:51:11;;;;;;;6.70;3.40;;;;;;;;;;4992682;28;20057;-73
2023/06/04 12:53:41;;;;;;;3.35;2.90;;;;;;;;;;5008299;28;20053;-73
2023/06/04 12:56:07;;;;;;;4.10;2.90;;;;;;;;;;4992679;28;20488;-74
2023/06/04 12:58:32;;;;;;;4.28;3.85;;;;;;;;;;4992467;28;20034;-75
2023/06/04 13:00:58;;;;;;;5.50;3.35;;;;;;;;;;4992696;28;20545;-75
2023/06/04 13:03:23;;;;;;;4.22;3.10;;;;;;;;;;4992556;28;20034;-74
2023/06/04 13:05:48;;;;;;;5.82;3.25;;;;;;;;;;4992844;28;20034;-75
2023/06/04 13:08:14;;;;;;;6.63;3.20;;;;;;;;;;4992365;28;20035;-75
2023/06/04 13:10:40;;;;;;;4.55;3.40;;;;;;;;;;4992533;28;20666;-75
2023/06/04 13:13:05;;;;;;;7.97;3.17;;;;;;;;;;4992344;28;20042;-75
2023/06/04 13:15:31;;;;;;;3.65;3.08;;;;;;;;;;4990697;28;20400;-74
2023/06/04 13:17:56;;;;;;;6.88;3.28;;;;;;;;;;4992695;28;20114;-75
2023/06/04 13:20:21;;;;;;;6.18;3.53;;;;;;;;;;4992410;28;20037;-75
2023/06/04 13:22:47;;;;;;;4.78;3.60;;;;;;;;;;4990850;28;20043;-74
2023/06/04 13:25:12;;;;;;;4.43;3.03;;;;;;;;;;4991962;28;20456;-75
2023/06/04 13:27:38;;;;;;;6.07;3.08;;;;;;;;;;4991987;28;20042;-74
2023/06/04 13:30:05;;;;;;;9.15;3.33;;;;;;;;;;4992112;28;20408;-74
2023/06/04 13:32:30;;;;;;;7.38;3.28;;;;;;;;;;4992323;28;20023;-75
2023/06/04 13:34:56;;;;;;;4.53;3.17;;;;;;;;;;4992182;28;20515;-74
2023/06/04 13:37:21;;;;;;;5.72;3.10;;;;;;;;;;4994317;28;20039;-75
2023/06/04 13:39:46;;;;;;;4.65;3.17;;;;;;;;;;4996200;28;20034;-75
2023/06/04 13:42:12;;;;;;;4.65;3.05;;;;;;;;;;4996164;28;20105;-74
2023/06/04 13:44:37;;;;;;;5.10;2.90;;;;;;;;;;4996742;28;20023;-72
2023/06/04 13:47:03;;;;;;;4.15;3.00;;;;;;;;;;4994574;28;20030;-74
2023/06/04 13:49:29;;;;;;;4.65;3.17;;;;;;;;;;4995847;28;20041;-74
2023/06/04 13:51:54;;;;;;;5.40;3.45;;;;;;;;;;4995900;28;20504;-73
2023/06/04 13:54:19;;;;;;;10.43;3.40;;;;;;;;;;5015551;28;20021;-75
2023/06/04 13:56:45;;;;;;;5.63;3.53;;;;;;;;;;5015881;28;20034;-75
2023/06/04 13:59:10;;;;;;;4.55;3.13;;;;;;;;;;5014817;28;20508;-73
2023/06/04 14:01:35;;;;;;;6.88;4.57;;;;;;;;;;5015136;28;20570;-73
2023/06/04 14:04:01;;;;;;;4.85;3.13;;;;;;;;;;5015423;28;20164;-73
2023/06/04 14:06:26;;;;;;;4.68;3.40;;;;;;;;;;5015011;28;20121;-76
2023/06/04 14:08:51;;;;;;;6.80;3.38;;;;;;;;;;5015040;28;20053;-73
2023/06/04 14:11:17;;;;;;;6.15;3.10;;;;;;;;;;5014848;28;20113;-74
2023/06/04 14:13:44;;;;;;;3.78;3.10;;;;;;;;;;5014682;28;20034;-74
2023/06/04 14:16:10;;;;;;;5.50;3.30;;;;;;;;;;5014806;28;20108;-74
2023/06/04 14:18:35;;;;;;;8.65;3.38;;;;;;;;;;5014675;28;20042;-74
2023/06/04 14:21:01;;;;;;;4.22;3.20;;;;;;;;;;5015065;28;20030;-74
2023/06/04 14:23:26;;;;;;;3.60;3.22;;;;;;;;;;5014549;28;20061;-73
2023/06/04 14:25:51;;;;;;;5.10;3.30;;;;;;;;;;5014386;28;20030;-74
2023/06/04 14:28:18;;;;;;;6.43;2.90;;;;;;;;;;5014504;28;20030;-74
2023/06/04 14:30:43;;;;;;;5.22;3.13;;;;;;;;;;5014500;28;20037;-74
2023/06/04 14:33:08;;;;;;;9.00;3.25;;;;;;;;;;5013206;28;20431;-73
2023/06/04 14:35:33;;;;;;;7.80;3.42;;;;;;;;;;5014412;28;20026;-73